Time;durP1;ratioP1;P1;durP2;ratioP2;P2;SDS_P1;SDS_P2;PMS_P1;PMS_P2;Temp;Humidity;BMP_temperature;BMP_pressure;BME280_temperature;BME280_humidity;BME280_pressure;Samples;Min_cycle;Max_cycle;Signal;HPM_P1;HPM_P2
2022/03/04 00:00:16;;;;;;;26.77;13.65;;;;;;;0.39;69.52;101700.56;4989201;28;20483;-71
2022/03/04 00:02:41;;;;;;;26.23;13.02;;;;;;;0.35;69.99;101704.16;5016574;28;20037;-72
2022/03/04 00:05:07;;;;;;;27.17;12.75;;;;;;;0.32;69.91;101703.47;5021226;28;20046;-71
2022/03/04 00:07:32;;;;;;;25.70;12.90;;;;;;;0.27;70.38;101708.78;5019900;28;20040;-72
2022/03/04 00:09:58;;;;;;;23.20;12.07;;;;;;;0.22;70.21;101715.00;5008639;28;20032;-71
2022/03/04 00:12:24;;;;;;;26.17;12.60;;;;;;;0.14;70.49;101717.88;4990201;28;20095;-72
2022/03/04 00:14:49;;;;;;;29.80;13.88;;;;;;;0.10;70.15;101712.06;5019447;28;20029;-71
2022/03/04 00:17:15;;;;;;;29.20;12.93;;;;;;;0.05;70.94;101713.97;5021119;28;20316;-71
2022/03/04 00:19:41;;;;;;;25.77;13.00;;;;;;;0.03;70.63;101720.88;5003038;28;20041;-71
2022/03/04 00:22:06;;;;;;;25.88;12.82;;;;;;;-0.04;70.59;101711.81;5017930;28;20076;-72
2022/03/04 00:24:32;;;;;;;23.05;12.30;;;;;;;-0.09;70.97;101719.69;5011588;28;20033;-73
2022/03/04 00:26:57;;;;;;;27.55;13.07;;;;;;;-0.11;71.37;101713.00;5019100;28;20049;-71
2022/03/04 00:29:23;;;;;;;24.27;12.00;;;;;;;-0.15;71.16;101714.00;5004798;28;20014;-71
2022/03/04 00:31:48;;;;;;;27.73;13.27;;;;;;;-0.21;71.67;101710.81;4989615;28;20404;-71
2022/03/04 00:34:14;;;;;;;27.98;13.25;;;;;;;-0.25;71.55;101711.00;5019708;23;20060;-69
2022/03/04 00:36:40;;;;;;;27.08;12.95;;;;;;;-0.29;71.63;101717.94;4995519;28;20641;-69
2022/03/04 00:39:14;;;;;;;26.92;12.68;;;;;;;-0.30;72.20;101718.00;5002093;28;20030;-69
2022/03/04 00:41:40;;;;;;;25.73;12.55;;;;;;;-0.30;72.12;101728.19;5006077;28;20034;-69
2022/03/04 00:44:06;;;;;;;25.48;12.63;;;;;;;-0.30;71.92;101730.75;4983260;28;20048;-69
2022/03/04 00:46:32;;;;;;;32.67;14.40;;;;;;;-0.30;72.19;101728.19;5007093;28;20099;-69
2022/03/04 00:48:57;;;;;;;33.60;13.77;;;;;;;-0.34;72.34;101724.97;5000132;28;20034;-69
2022/03/04 00:51:22;;;;;;;26.83;13.27;;;;;;;-0.38;71.82;101732.78;5006525;28;20056;-69
2022/03/04 00:53:48;;;;;;;29.83;14.55;;;;;;;-0.46;72.40;101733.09;5004176;28;20037;-69
2022/03/04 00:56:14;;;;;;;29.40;14.10;;;;;;;-0.52;72.48;101730.81;5000760;28;20037;-69
2022/03/04 00:58:40;;;;;;;29.45;14.13;;;;;;;-0.60;72.72;101738.75;5004768;28;20034;-69
2022/03/04 01:01:06;;;;;;;30.92;14.40;;;;;;;-0.64;73.36;101744.84;5005930;28;20030;-69
2022/03/04 01:03:33;;;;;;;31.48;14.77;;;;;;;-0.69;73.53;101750.13;5003722;28;20030;-68
2022/03/04 01:06:00;;;;;;;30.05;13.93;;;;;;;-0.72;73.66;101749.41;4994343;28;20033;-69
2022/03/04 01:08:25;;;;;;;26.35;13.23;;;;;;;-0.76;73.98;101746.16;5007144;28;20161;-69
2022/03/04 01:10:51;;;;;;;28.67;14.73;;;;;;;-0.80;74.38;101750.53;5003002;28;20572;-68
2022/03/04 01:13:17;;;;;;;33.33;13.30;;;;;;;-0.83;74.27;101748.13;5005362;28;20026;-68
2022/03/04 01:15:43;;;;;;;27.67;14.02;;;;;;;-0.83;74.48;101748.13;5005070;28;20135;-68
2022/03/04 01:18:08;;;;;;;27.38;13.35;;;;;;;-0.82;74.68;101757.41;5008240;28;20471;-68
2022/03/04 01:20:34;;;;;;;25.77;13.15;;;;;;;-0.81;74.95;101753.16;5005457;28;20495;-68
2022/03/04 01:23:00;;;;;;;30.25;14.02;;;;;;;-0.79;74.84;101753.94;5003401;28;20085;-68
2022/03/04 01:25:26;;;;;;;29.95;14.27;;;;;;;-0.77;75.32;101749.63;5005568;28;20072;-68
2022/03/04 01:27:51;;;;;;;32.25;14.00;;;;;;;-0.80;74.99;101744.63;5005183;28;20033;-68
2022/03/04 01:30:18;;;;;;;27.45;13.77;;;;;;;-0.82;75.09;101752.31;5002456;28;20030;-68
2022/03/04 01:32:44;;;;;;;28.38;14.00;;;;;;;-0.85;75.07;101743.97;5002949;28;20034;-68
2022/03/04 01:35:10;;;;;;;31.83;14.32;;;;;;;-0.89;75.41;101738.16;5018979;28;20041;-68
2022/03/04 01:37:35;;;;;;;33.88;13.20;;;;;;;-0.91;75.32;101744.22;5006276;28;20046;-68
2022/03/04 01:40:06;;;;;;;30.65;14.57;;;;;;;-0.94;74.94;101744.31;5000667;28;20116;-68
2022/03/04 01:42:31;;;;;;;32.65;13.98;;;;;;;-0.99;75.13;101735.16;5003725;28;20116;-68
2022/03/04 01:44:57;;;;;;;29.45;14.18;;;;;;;-1.01;75.29;101746.28;5000754;28;20112;-68
2022/03/04 01:47:22;;;;;;;29.58;14.25;;;;;;;-1.03;75.17;101740.44;5005459;28;20515;-68
2022/03/04 01:49:48;;;;;;;29.33;14.43;;;;;;;-1.05;74.77;101747.28;5006528;28;20100;-68
2022/03/04 01:52:13;;;;;;;32.30;14.50;;;;;;;-1.07;75.13;101747.34;4985519;28;20043;-68
2022/03/04 01:54:39;;;;;;;28.85;13.55;;;;;;;-1.09;74.93;101746.56;5006255;28;20026;-68
2022/03/04 01:57:05;;;;;;;28.98;13.70;;;;;;;-1.12;75.30;101741.59;5003509;28;20405;-68
2022/03/04 01:59:31;;;;;;;30.73;14.23;;;;;;;-1.13;75.46;101739.94;4991597;28;20104;-68
2022/03/04 02:01:56;;;;;;;26.80;13.45;;;;;;;-1.15;75.23;101748.50;5003662;28;20130;-68
2022/03/04 02:04:25;;;;;;;28.08;14.32;;;;;;;-1.18;75.08;101740.09;5005233;28;20041;-68
2022/03/04 02:06:51;;;;;;;34.83;15.13;;;;;;;-1.20;75.17;101735.97;5004383;28;20470;-68
2022/03/04 02:09:18;;;;;;;30.20;14.02;;;;;;;-1.21;75.17;101735.13;5003381;28;20073;-68
2022/03/04 02:11:44;;;;;;;29.48;14.20;;;;;;;-1.24;75.61;101735.25;4988385;28;20038;-68
2022/03/04 02:14:11;;;;;;;28.73;14.40;;;;;;;-1.26;75.50;101736.16;5005508;28;20036;-68
2022/03/04 02:16:57;;;;;;;28.25;14.20;;;;;;;-1.31;75.68;101733.00;4985465;28;20085;-68
2022/03/04 02:19:23;;;;;;;29.42;14.48;;;;;;;-1.38;75.70;101730.66;5018888;28;20538;-68
2022/03/04 02:22:01;;;;;;;30.00;13.98;;;;;;;-1.43;75.58;101726.59;5000872;28;20522;-67
2022/03/04 02:24:28;;;;;;;32.00;15.50;;;;;;;-1.47;75.81;101735.25;5018228;28;20084;-68
2022/03/04 02:26:55;;;;;;;29.27;14.32;;;;;;;-1.51;75.46;101734.53;5004689;28;20037;-67
2022/03/04 02:29:21;;;;;;;34.22;16.30;;;;;;;-1.55;76.06;101725.34;5001327;28;20038;-68
2022/03/04 02:31:48;;;;;;;32.00;14.52;;;;;;;-1.59;76.01;101726.34;5018750;28;20057;-67
2022/03/04 02:34:13;;;;;;;32.63;14.50;;;;;;;-1.62;76.05;101731.53;5005017;28;20100;-68
2022/03/04 02:36:39;;;;;;;29.00;13.82;;;;;;;-1.65;76.12;101731.66;5001217;28;20038;-68
2022/03/04 02:39:06;;;;;;;35.75;14.43;;;;;;;-1.69;76.50;101730.94;5005765;28;20042;-68
2022/03/04 02:41:34;;;;;;;29.17;14.98;;;;;;;-1.73;76.96;101734.47;5005023;28;20058;-67
2022/03/04 02:44:04;;;;;;;31.13;14.43;;;;;;;-1.76;77.07;101732.84;5002572;28;20052;-67
2022/03/04 02:46:29;;;;;;;33.80;15.63;;;;;;;-1.76;77.02;101727.75;5005392;28;20029;-68
2022/03/04 02:48:55;;;;;;;38.10;18.35;;;;;;;-1.77;77.19;101726.13;5001144;28;20574;-68
2022/03/04 02:51:20;;;;;;;43.17;18.27;;;;;;;-1.79;77.02;101719.41;5003058;28;20033;-67
2022/03/04 02:53:46;;;;;;;38.10;17.63;;;;;;;-1.83;77.08;101726.34;5003462;28;20038;-67
2022/03/04 02:56:12;;;;;;;37.05;16.23;;;;;;;-1.88;77.49;101718.03;5006151;28;20484;-68
2022/03/04 02:58:37;;;;;;;30.67;14.63;;;;;;;-1.94;77.53;101720.81;5002731;28;20040;-68
2022/03/04 03:01:03;;;;;;;29.45;14.98;;;;;;;-1.99;77.57;101713.31;5001774;28;20022;-68
2022/03/04 03:03:28;;;;;;;27.38;13.23;;;;;;;-2.04;77.63;101717.72;4981316;28;20484;-67
2022/03/04 03:05:54;;;;;;;31.38;13.55;;;;;;;-2.06;77.93;101726.28;5002743;28;20038;-67
2022/03/04 03:08:19;;;;;;;28.85;13.68;;;;;;;-2.10;78.42;101719.66;5002443;28;20912;-67
2022/03/04 03:10:45;;;;;;;32.60;14.90;;;;;;;-2.11;78.58;101715.44;5001318;28;20038;-68
2022/03/04 03:13:10;;;;;;;29.25;14.32;;;;;;;-2.12;78.92;101719.69;5003126;28;20131;-67
2022/03/04 03:15:36;;;;;;;31.92;15.75;;;;;;;-2.12;78.86;101718.88;5001563;28;20049;-67
2022/03/04 03:18:02;;;;;;;36.15;16.20;;;;;;;-2.09;79.15;101723.84;5002548;28;20045;-67
2022/03/04 03:20:28;;;;;;;46.03;21.15;;;;;;;-2.10;79.12;101723.00;5001217;28;20412;-67
2022/03/04 03:22:53;;;;;;;53.00;23.17;;;;;;;-2.12;79.01;101719.69;5000511;28;20034;-68
2022/03/04 03:25:18;;;;;;;57.05;25.13;;;;;;;-2.12;79.13;101721.41;5001152;28;20038;-67
2022/03/04 03:27:45;;;;;;;50.22;22.25;;;;;;;-2.14;79.48;101726.53;5004462;28;20061;-67
2022/03/04 03:30:11;;;;;;;46.80;19.70;;;;;;;-2.16;79.53;101730.84;4997861;28;20080;-67
2022/03/04 03:32:37;;;;;;;43.50;18.73;;;;;;;-2.18;79.69;101725.81;5003264;28;20040;-67
2022/03/04 03:35:03;;;;;;;38.65;17.48;;;;;;;-2.20;79.73;101731.84;4998594;28;20033;-67
2022/03/04 03:37:29;;;;;;;38.08;18.13;;;;;;;-2.20;80.14;101734.38;5004654;28;20029;-68
2022/03/04 03:39:54;;;;;;;44.15;20.95;;;;;;;-2.23;79.89;101732.75;4999297;28;20448;-67
2022/03/04 03:42:20;;;;;;;50.03;21.13;;;;;;;-2.23;80.04;101735.28;5004533;28;20036;-67
2022/03/04 03:44:45;;;;;;;42.33;19.77;;;;;;;-2.23;80.25;101740.38;5001333;28;20037;-67
2022/03/04 03:47:11;;;;;;;48.05;21.17;;;;;;;-2.23;80.15;101739.56;4999040;28;20042;-67
2022/03/04 03:49:38;;;;;;;46.05;20.27;;;;;;;-2.24;80.04;101743.81;4998024;28;20109;-67
2022/03/04 03:52:04;;;;;;;46.45;20.73;;;;;;;-2.24;80.36;101742.97;5003091;28;20149;-67
2022/03/04 03:54:29;;;;;;;46.13;19.95;;;;;;;-2.26;80.27;101735.41;5000321;28;20022;-68
2022/03/04 03:56:55;;;;;;;46.30;21.50;;;;;;;-2.29;80.20;101739.78;4996116;28;20092;-67
2022/03/04 03:59:20;;;;;;;41.85;19.35;;;;;;;-2.30;80.25;101749.06;5002743;28;20034;-67
2022/03/04 04:01:46;;;;;;;43.75;20.38;;;;;;;-2.33;79.95;101751.75;5003593;28;20041;-67
2022/03/04 04:04:12;;;;;;;50.55;21.17;;;;;;;-2.34;80.01;101750.06;4998143;28;20045;-67
2022/03/04 04:06:39;;;;;;;47.65;21.00;;;;;;;-2.38;79.92;101746.78;4997225;28;20045;-67
2022/03/04 04:09:06;;;;;;;51.72;22.08;;;;;;;-2.40;79.81;101742.66;5000866;28;20396;-67
2022/03/04 04:11:35;;;;;;;58.40;22.15;;;;;;;-2.41;80.19;101748.59;5001602;28;20038;-67
2022/03/04 04:14:06;;;;;;;54.25;22.70;;;;;;;-2.43;80.27;101750.34;4994056;28;20034;-67
2022/03/04 04:16:32;;;;;;;59.33;22.25;;;;;;;-2.47;80.21;101751.34;5015573;28;20029;-67
2022/03/04 04:18:58;;;;;;;62.60;25.60;;;;;;;-2.51;79.98;101742.97;4998763;28;20590;-67
2022/03/04 04:21:27;;;;;;;62.70;22.42;;;;;;;-2.53;80.39;101749.00;5000823;28;20384;-67
2022/03/04 04:23:55;;;;;;;48.15;21.23;;;;;;;-2.57;80.69;101753.34;5004590;28;20034;-67
2022/03/04 04:26:22;;;;;;;50.88;20.23;;;;;;;-2.59;80.67;101750.03;5005479;28;20115;-67
2022/03/04 04:28:48;;;;;;;45.25;18.55;;;;;;;-2.64;80.92;101752.69;5003134;28;20025;-67
2022/03/04 04:31:14;;;;;;;40.17;18.60;;;;;;;-2.69;80.78;101752.03;5001291;28;20498;-67
2022/03/04 04:33:40;;;;;;;36.55;17.38;;;;;;;-2.74;81.14;101758.94;5007200;28;20034;-67
2022/03/04 04:36:06;;;;;;;39.10;16.88;;;;;;;-2.79;81.52;101763.31;5004960;28;20065;-67
2022/03/04 04:38:31;;;;;;;38.08;17.27;;;;;;;-2.83;81.99;101767.66;5019857;28;20053;-67
2022/03/04 04:40:57;;;;;;;40.17;17.30;;;;;;;-2.85;81.76;101771.13;5002631;28;20573;-67
2022/03/04 04:43:23;;;;;;;39.60;17.50;;;;;;;-2.87;82.13;101770.34;5001390;28;20050;-67
2022/03/04 04:45:50;;;;;;;34.55;15.82;;;;;;;-2.88;82.30;101777.13;5006340;28;20395;-67
2022/03/04 04:48:16;;;;;;;37.60;16.90;;;;;;;-2.88;82.00;101773.75;5006351;28;20033;-67
2022/03/04 04:50:42;;;;;;;40.67;19.27;;;;;;;-2.89;81.89;101767.84;5005942;28;20040;-67
2022/03/04 04:53:07;;;;;;;41.88;18.25;;;;;;;-2.90;81.95;101767.88;5001683;28;20057;-67
2022/03/04 04:55:33;;;;;;;40.45;17.65;;;;;;;-2.91;82.11;101762.00;5005728;28;20033;-67
2022/03/04 04:57:59;;;;;;;38.22;17.80;;;;;;;-2.91;82.17;101767.06;5002297;28;20061;-67
2022/03/04 05:00:25;;;;;;;38.42;18.50;;;;;;;-2.92;81.82;101769.66;4991628;28;20022;-67
2022/03/04 05:02:50;;;;;;;41.35;18.33;;;;;;;-2.95;81.99;101771.41;4998661;28;20058;-67
2022/03/04 05:05:16;;;;;;;40.70;17.88;;;;;;;-2.98;82.22;101771.47;5004728;28;20030;-67
2022/03/04 05:07:41;;;;;;;38.03;17.23;;;;;;;-3.01;82.22;101775.84;4998371;28;20084;-67
2022/03/04 05:10:07;;;;;;;38.35;17.17;;;;;;;-3.05;82.35;101770.03;5001097;28;20049;-67
2022/03/04 05:12:33;;;;;;;38.80;17.52;;;;;;;-3.08;82.63;101765.03;5006935;28;20038;-67
2022/03/04 05:14:58;;;;;;;37.38;17.80;;;;;;;-3.10;82.68;101769.31;5004484;28;20081;-67
2022/03/04 05:17:24;;;;;;;39.72;17.48;;;;;;;-3.11;82.70;101772.72;5007649;28;20042;-67
2022/03/04 05:19:50;;;;;;;41.92;17.88;;;;;;;-3.14;82.79;101771.09;5005810;28;20105;-67
2022/03/04 05:22:16;;;;;;;39.17;17.08;;;;;;;-3.16;82.83;101775.41;5015217;28;20034;-67
2022/03/04 05:24:41;;;;;;;40.72;17.30;;;;;;;-3.17;83.18;101772.91;5000641;28;20041;-67
2022/03/04 05:27:08;;;;;;;34.13;16.80;;;;;;;-3.19;82.93;101779.72;5006000;28;20385;-67
2022/03/04 05:29:33;;;;;;;45.00;17.63;;;;;;;-3.22;82.87;101789.94;5002997;28;20026;-67
2022/03/04 05:31:59;;;;;;;42.28;17.52;;;;;;;-3.25;83.21;101790.88;5009207;28;20034;-67
2022/03/04 05:34:25;;;;;;;41.55;17.60;;;;;;;-3.27;83.40;101790.09;5002347;28;20022;-67
2022/03/04 05:36:51;;;;;;;40.53;17.48;;;;;;;-3.27;83.54;101797.69;5001604;28;20037;-67
2022/03/04 05:39:16;;;;;;;35.70;17.00;;;;;;;-3.29;83.71;101798.63;5005935;28;20515;-66
2022/03/04 05:41:41;;;;;;;39.35;18.20;;;;;;;-3.30;83.73;101800.31;5004247;28;20033;-68
2022/03/04 05:44:07;;;;;;;40.22;17.63;;;;;;;-3.31;83.54;101803.75;5007506;28;20406;-67
2022/03/04 05:46:33;;;;;;;39.42;17.75;;;;;;;-3.31;83.83;101793.59;5001134;28;20097;-67
2022/03/04 05:48:58;;;;;;;46.70;18.00;;;;;;;-3.29;83.84;101802.00;5003732;28;20654;-67
2022/03/04 05:51:24;;;;;;;41.10;17.60;;;;;;;-3.30;83.72;101802.84;5004627;28;20034;-67
2022/03/04 05:53:51;;;;;;;38.28;17.40;;;;;;;-3.30;83.77;101807.09;5000492;28;20061;-67
2022/03/04 05:56:17;;;;;;;38.47;17.63;;;;;;;-3.31;83.51;101808.81;5003480;28;20436;-67
2022/03/04 05:58:43;;;;;;;50.38;17.77;;;;;;;-3.32;83.21;101815.56;4985968;28;20037;-67
2022/03/04 06:01:08;;;;;;;41.28;17.50;;;;;;;-3.31;83.50;101813.88;5008041;28;20034;-67
2022/03/04 06:03:35;;;;;;;45.33;19.13;;;;;;;-3.33;83.46;101821.53;5004931;28;20061;-67
2022/03/04 06:06:01;;;;;;;42.90;19.38;;;;;;;-3.35;83.55;101815.66;5004425;28;20041;-67
2022/03/04 06:08:26;;;;;;;40.95;17.95;;;;;;;-3.36;83.39;101821.59;4998842;28;20100;-68
2022/03/04 06:10:52;;;;;;;42.13;18.30;;;;;;;-3.38;83.83;101823.34;4998017;28;20037;-66
2022/03/04 06:13:17;;;;;;;46.92;17.00;;;;;;;-3.39;83.91;101821.72;5002869;28;20045;-67
2022/03/04 06:15:43;;;;;;;41.65;18.92;;;;;;;-3.39;84.36;101824.25;5002144;28;20061;-67
2022/03/04 06:18:08;;;;;;;41.03;19.27;;;;;;;-3.39;83.94;101823.38;5002760;28;20063;-67
2022/03/04 06:20:34;;;;;;;46.72;18.98;;;;;;;-3.39;83.98;101825.94;5001119;28;20053;-67
2022/03/04 06:22:59;;;;;;;43.60;19.67;;;;;;;-3.40;83.84;101827.63;4988918;28;20036;-66
2022/03/04 06:25:25;;;;;;;43.58;17.90;;;;;;;-3.39;84.20;101831.84;5004108;28;20036;-67
2022/03/04 06:28:03;;;;;;;41.38;18.60;;;;;;;-3.38;83.94;101828.44;5004962;28;21391;-67
2022/03/04 06:30:30;;;;;;;41.42;18.58;;;;;;;-3.38;83.86;101830.13;4988601;28;20083;-67
2022/03/04 06:35:22;;;;;;;45.97;19.08;;;;;;;-3.37;84.27;101837.72;5002254;28;20072;-67
2022/03/04 06:37:48;;;;;;;44.15;19.02;;;;;;;-3.36;84.19;101830.94;5007148;28;20033;-66
2022/03/04 06:40:13;;;;;;;41.85;17.88;;;;;;;-3.34;84.11;101840.16;5026017;28;20025;-66
2022/03/04 06:42:39;;;;;;;50.05;18.80;;;;;;;-3.34;83.91;101835.06;5027526;28;20475;-67
2022/03/04 06:45:05;;;;;;;42.67;19.33;;;;;;;-3.32;83.96;101837.56;5038864;28;20037;-67
2022/03/04 06:47:30;;;;;;;45.78;17.67;;;;;;;-3.30;83.94;101835.84;5040430;28;20115;-67
2022/03/04 06:49:56;;;;;;;43.97;18.92;;;;;;;-3.28;83.75;101843.41;5026914;28;20420;-67
2022/03/04 06:52:22;;;;;;;46.15;19.73;;;;;;;-3.26;83.68;101849.25;5039254;28;20137;-66
2022/03/04 06:54:48;;;;;;;45.38;19.02;;;;;;;-3.22;84.31;101835.63;5029498;28;20045;-67
2022/03/04 06:57:14;;;;;;;50.40;20.75;;;;;;;-3.20;84.64;101839.78;5024405;28;20483;-67
2022/03/04 06:59:39;;;;;;;50.63;20.33;;;;;;;-3.19;84.78;101845.69;5045757;28;20040;-67
2022/03/04 07:02:06;;;;;;;50.92;19.63;;;;;;;-3.18;85.09;101845.66;5030000;28;20033;-67
2022/03/04 07:04:32;;;;;;;45.35;18.00;;;;;;;-3.15;85.29;101858.25;5042671;28;20032;-66
2022/03/04 07:06:57;;;;;;;43.08;20.33;;;;;;;-3.13;85.61;101854.00;5043537;28;20044;-67
2022/03/04 07:09:23;;;;;;;45.58;19.85;;;;;;;-3.10;85.78;101862.38;5032300;28;20028;-67
2022/03/04 07:11:48;;;;;;;48.42;20.95;;;;;;;-3.02;86.15;101863.00;5043164;28;20506;-67
2022/03/04 07:14:14;;;;;;;50.38;21.35;;;;;;;-2.92;86.61;101855.94;5019979;28;20043;-67
2022/03/04 07:16:39;;;;;;;49.63;21.35;;;;;;;-2.68;87.03;101867.13;5045251;28;20041;-67
2022/03/04 07:19:05;;;;;;;54.50;21.88;;;;;;;-2.30;86.68;101871.03;5030301;28;20037;-67
2022/03/04 07:21:30;;;;;;;57.97;21.67;;;;;;;-1.77;85.34;101871.09;5027324;28;20040;-67
2022/03/04 07:23:56;;;;;;;53.35;21.58;;;;;;;-1.17;83.71;101886.03;5024462;28;20045;-67
2022/03/04 07:26:21;;;;;;;48.42;20.45;;;;;;;-0.49;80.87;101883.56;5039284;28;20025;-67
2022/03/04 07:28:47;;;;;;;45.70;19.30;;;;;;;0.18;77.93;101878.38;5042249;28;20434;-67
2022/03/04 07:31:12;;;;;;;41.90;19.23;;;;;;;0.82;74.44;101860.44;5048168;28;20060;-68
2022/03/04 07:33:38;;;;;;;43.00;19.20;;;;;;;1.39;70.48;101860.44;5044742;28;20040;-68
2022/03/04 07:36:04;;;;;;;40.28;17.23;;;;;;;1.80;67.73;101865.34;5051696;28;20047;-68
2022/03/04 07:38:30;;;;;;;36.47;17.13;;;;;;;2.26;65.58;101863.97;5057942;28;20057;-68
2022/03/04 07:40:58;;;;;;;37.15;17.23;;;;;;;2.56;63.34;101867.59;5053388;28;20052;-69
2022/03/04 07:43:25;;;;;;;48.38;17.30;;;;;;;2.95;61.89;101867.28;5046581;28;20041;-69
2022/03/04 07:45:50;;;;;;;39.28;17.73;;;;;;;3.09;61.23;101869.97;5046636;28;20471;-69
2022/03/04 07:48:16;;;;;;;36.22;16.25;;;;;;;3.22;60.41;101865.00;5046311;28;20043;-69
2022/03/04 07:50:41;;;;;;;41.05;17.20;;;;;;;3.54;59.41;101867.53;5040888;28;20090;-70
2022/03/04 07:53:07;;;;;;;45.53;16.88;;;;;;;3.77;59.07;101862.88;5033634;28;20044;-69
2022/03/04 07:55:33;;;;;;;43.53;16.13;;;;;;;3.85;58.07;101861.53;5042420;28;20435;-70
2022/03/04 07:57:59;;;;;;;39.15;16.75;;;;;;;3.78;58.27;101860.22;5023024;28;20034;-70
2022/03/04 08:00:26;;;;;;;33.22;16.17;;;;;;;4.02;57.43;101852.06;5043621;28;20410;-70
2022/03/04 08:02:52;;;;;;;34.53;16.42;;;;;;;4.29;56.93;101858.19;5045786;28;20024;-70
2022/03/04 08:05:18;;;;;;;38.85;15.85;;;;;;;4.61;56.83;101863.16;5029070;28;20160;-70
2022/03/04 08:07:44;;;;;;;38.80;16.60;;;;;;;4.74;55.21;101863.25;5045946;28;20123;-71
2022/03/04 08:10:10;;;;;;;35.25;17.48;;;;;;;4.88;56.44;101863.25;5038234;28;20057;-70
2022/03/04 08:12:37;;;;;;;41.05;16.58;;;;;;;5.38;55.87;101870.53;5033159;28;20029;-70
2022/03/04 08:15:06;;;;;;;39.45;17.00;;;;;;;5.74;54.70;101862.22;5049175;28;20040;-71
2022/03/04 08:17:32;;;;;;;34.55;15.45;;;;;;;5.87;54.25;101869.97;5046531;28;20039;-71
2022/03/04 08:19:58;;;;;;;33.58;16.15;;;;;;;6.24;52.92;101867.59;5054836;28;20641;-70
2022/03/04 08:22:23;;;;;;;37.80;15.60;;;;;;;6.10;51.85;101868.50;5031075;28;20036;-71
2022/03/04 08:24:49;;;;;;;31.42;15.63;;;;;;;6.06;52.50;101868.81;5025017;28;20029;-71
2022/03/04 08:27:15;;;;;;;38.80;16.65;;;;;;;6.26;51.33;101868.34;5032618;28;20132;-71
2022/03/04 08:29:42;;;;;;;35.60;17.08;;;;;;;6.24;50.54;101868.44;5047420;28;20651;-70
2022/03/04 08:32:07;;;;;;;34.88;16.65;;;;;;;5.96;51.22;101873.75;5020638;28;20033;-70
2022/03/04 08:34:33;;;;;;;39.78;16.58;;;;;;;6.10;51.16;101877.97;5028007;28;20490;-71
2022/03/04 08:36:58;;;;;;;36.85;16.15;;;;;;;6.36;51.40;101879.66;5053374;28;20033;-71
2022/03/04 08:39:24;;;;;;;35.03;16.42;;;;;;;6.40;50.48;101888.84;5047551;28;20521;-71
2022/03/04 08:41:50;;;;;;;40.03;16.73;;;;;;;6.54;50.07;101885.34;5032347;28;20025;-71
2022/03/04 08:44:16;;;;;;;31.75;15.77;;;;;;;6.98;48.94;101889.22;5053821;28;20036;-71
2022/03/04 08:46:42;;;;;;;37.35;17.42;;;;;;;6.52;48.21;101886.41;5030362;28;20033;-71
2022/03/04 08:49:09;;;;;;;35.40;15.73;;;;;;;6.11;49.29;101890.75;5023832;28;20025;-71
2022/03/04 08:51:35;;;;;;;40.63;17.25;;;;;;;6.24;49.45;101893.38;5044822;28;20529;-71
2022/03/04 08:54:01;;;;;;;37.53;16.23;;;;;;;6.34;48.39;101888.44;5012703;28;20025;-71
2022/03/04 08:56:26;;;;;;;31.30;16.15;;;;;;;6.79;48.52;101881.91;5024874;28;20721;-71
2022/03/04 08:58:52;;;;;;;37.92;17.45;;;;;;;7.13;47.09;101883.94;5042269;28;20036;-71
2022/03/04 09:01:17;;;;;;;39.40;18.08;;;;;;;7.28;47.68;101885.44;5047326;28;20040;-71
2022/03/04 09:03:43;;;;;;;35.15;16.83;;;;;;;7.05;47.17;101881.06;5026460;28;20036;-71
2022/03/04 09:06:09;;;;;;;36.08;17.50;;;;;;;6.91;47.40;101882.00;5032791;28;20032;-71
2022/03/04 09:08:35;;;;;;;34.42;16.77;;;;;;;7.28;46.96;101877.69;5036356;28;20110;-71
2022/03/04 09:11:01;;;;;;;31.52;16.02;;;;;;;7.59;47.00;101875.50;5030479;28;20017;-71
2022/03/04 09:13:26;;;;;;;39.83;17.98;;;;;;;7.59;46.66;101873.78;5031044;28;20034;-71
2022/03/04 09:15:52;;;;;;;33.95;16.55;;;;;;;7.64;46.70;101886.34;5015807;28;20036;-71
2022/03/04 09:18:17;;;;;;;33.97;16.85;;;;;;;7.63;46.96;101886.44;5027126;28;20041;-71
2022/03/04 09:20:43;;;;;;;35.63;17.33;;;;;;;7.57;46.56;101888.56;5054200;28;20115;-70
2022/03/04 09:23:08;;;;;;;37.28;17.48;;;;;;;7.35;46.68;101881.50;5057354;28;20025;-71
2022/03/04 09:25:34;;;;;;;34.97;17.77;;;;;;;7.25;47.08;101879.66;5056168;28;20060;-70
2022/03/04 09:28:02;;;;;;;44.35;19.48;;;;;;;6.88;48.04;101877.09;5054242;28;20053;-70
2022/03/04 09:30:27;;;;;;;36.05;18.58;;;;;;;6.84;48.55;101889.34;5059558;28;20021;-71
2022/03/04 09:32:53;;;;;;;39.50;18.08;;;;;;;6.58;48.98;101885.97;5047364;28;20155;-70
2022/03/04 09:35:19;;;;;;;40.10;19.05;;;;;;;6.67;49.40;101885.34;5029634;28;20039;-70
2022/03/04 09:37:45;;;;;;;36.45;18.23;;;;;;;6.49;48.73;101877.09;5025823;28;20041;-70
2022/03/04 09:40:12;;;;;;;34.63;17.73;;;;;;;6.38;49.57;101888.09;5024192;28;20033;-70
2022/03/04 09:42:37;;;;;;;39.85;18.65;;;;;;;6.46;50.11;101889.34;5029518;28;20158;-70
2022/03/04 09:45:04;;;;;;;39.45;19.52;;;;;;;6.58;49.93;101896.28;5025460;28;20147;-70
2022/03/04 09:47:30;;;;;;;41.55;18.90;;;;;;;6.36;49.57;101884.00;5027509;28;20041;-70
2022/03/04 09:49:58;;;;;;;43.63;19.80;;;;;;;6.17;50.12;101882.63;5050491;28;20025;-70
2022/03/04 09:52:24;;;;;;;42.05;19.40;;;;;;;6.11;50.67;101890.75;5055423;28;20071;-70
2022/03/04 09:54:51;;;;;;;40.28;19.35;;;;;;;6.34;50.58;101896.16;5025863;28;20674;-70
2022/03/04 09:57:17;;;;;;;41.45;19.08;;;;;;;6.26;50.07;101890.69;5026944;28;20271;-70
2022/03/04 09:59:44;;;;;;;39.10;20.30;;;;;;;6.26;50.65;101888.94;5026286;28;20585;-70
2022/03/04 10:02:13;;;;;;;39.08;18.75;;;;;;;6.48;50.58;101890.06;5043229;28;20103;-70
2022/03/04 10:04:39;;;;;;;44.78;19.95;;;;;;;6.48;49.72;101893.50;5043791;28;20483;-70
2022/03/04 10:07:15;;;;;;;45.03;19.17;;;;;;;6.40;50.29;101891.44;5044156;28;20033;-70
2022/03/04 10:09:49;;;;;;;50.28;22.90;;;;;;;6.54;50.62;101885.34;5042963;28;20028;-70
2022/03/04 10:12:20;;;;;;;44.50;19.80;;;;;;;6.54;49.28;101884.53;5043920;28;20068;-70
2022/03/04 10:15:06;;;;;;;39.33;20.65;;;;;;;6.58;49.90;101880.81;5022569;28;20059;-70
2022/03/04 10:17:35;;;;;;;42.15;19.38;;;;;;;6.67;49.48;101877.63;5033495;28;20107;-70
2022/03/04 10:20:12;;;;;;;41.25;19.55;;;;;;;6.75;50.51;101877.91;5061264;28;20037;-70
2022/03/04 10:22:42;;;;;;;46.03;21.98;;;;;;;6.84;50.89;101879.03;5046480;28;20414;-70
2022/03/04 10:25:14;;;;;;;51.85;22.80;;;;;;;6.78;49.90;101876.88;5039521;28;20036;-70
2022/03/04 10:27:39;;;;;;;42.38;20.77;;;;;;;6.82;49.54;101868.03;5041282;28;20025;-70
2022/03/04 10:30:06;;;;;;;47.83;21.08;;;;;;;6.78;50.56;101869.13;5039164;28;20029;-70
2022/03/04 10:32:32;;;;;;;48.25;21.50;;;;;;;6.83;50.54;101874.81;5042555;28;20052;-70
2022/03/04 10:35:03;;;;;;;46.95;20.60;;;;;;;6.95;49.88;101873.13;5025376;28;20033;-70
2022/03/04 10:37:43;;;;;;;49.03;22.38;;;;;;;6.92;50.60;101881.91;5039132;28;20128;-70
2022/03/04 10:40:12;;;;;;;45.45;20.88;;;;;;;6.95;50.26;101871.41;5019726;28;20041;-70
2022/03/04 10:42:50;;;;;;;46.63;22.80;;;;;;;7.06;50.52;101872.41;5037375;28;20368;-70
2022/03/04 10:45:20;;;;;;;45.35;20.88;;;;;;;7.09;50.38;101867.03;5032894;28;20097;-70
2022/03/04 10:47:49;;;;;;;48.15;19.88;;;;;;;7.17;49.41;101869.88;5041974;28;20033;-70
2022/03/04 10:50:17;;;;;;;47.70;24.33;;;;;;;7.35;48.86;101863.44;5046272;28;20284;-70
2022/03/04 10:52:57;;;;;;;47.65;21.85;;;;;;;7.32;49.18;101873.16;5044808;28;20037;-70
2022/03/04 10:55:30;;;;;;;42.75;21.55;;;;;;;7.36;49.24;101866.84;5022263;28;20450;-70
2022/03/04 10:57:57;;;;;;;44.40;20.65;;;;;;;7.37;47.88;101869.31;5041809;28;20114;-70
2022/03/04 11:00:32;;;;;;;40.97;20.33;;;;;;;7.58;46.63;101864.38;5026545;28;20029;-70
2022/03/04 11:02:58;;;;;;;41.47;20.25;;;;;;;7.66;47.78;101863.00;5038633;28;20029;-70
2022/03/04 11:05:24;;;;;;;49.42;20.70;;;;;;;7.80;48.31;101860.25;5037561;28;20629;-70
2022/03/04 11:07:50;;;;;;;42.80;20.67;;;;;;;7.83;47.87;101862.59;5041442;28;20044;-70
2022/03/04 11:10:17;;;;;;;39.92;20.25;;;;;;;7.65;47.71;101862.19;5021512;28;20032;-70